createdAt,value
2023-02-06T00:01:28.847Z,99751.78
2023-02-06T00:03:55.349Z,99732.13
2023-02-06T00:06:22.146Z,99737.22
2023-02-06T00:08:48.648Z,99731.72
2023-02-06T00:11:16.819Z,99717.34
2023-02-06T00:13:44.621Z,99732.22
2023-02-06T00:16:22.896Z,99724.44
2023-02-06T00:18:49.822Z,99725.28
2023-02-06T00:21:20.170Z,99720.28
2023-02-06T00:23:46.644Z,99722.56
2023-02-06T00:26:13.107Z,99724.84
2023-02-06T00:28:39.841Z,99718.41
2023-02-06T00:31:08.122Z,99705.59
2023-02-06T00:33:37.935Z,99712.31
2023-02-06T00:36:05.609Z,99705.22
2023-02-06T00:38:32.680Z,99699.22
2023-02-06T00:40:59.218Z,99683.34
2023-02-06T00:43:28.313Z,99685.28
2023-02-06T00:45:56.720Z,99688.75
2023-02-06T00:48:24.409Z,99693.00
2023-02-06T00:50:52.653Z,99688.75
2023-02-06T00:53:19.470Z,99694.94
2023-02-06T00:55:45.987Z,99688.66
2023-02-06T00:58:12.484Z,99680.06
2023-02-06T01:00:39.020Z,99677.84
2023-02-06T01:03:05.600Z,99669.81
2023-02-06T01:05:32.392Z,99674.81
2023-02-06T01:07:58.869Z,99661.44
2023-02-06T01:10:25.349Z,99661.25
2023-02-06T01:12:51.843Z,99666.19
2023-02-06T01:15:18.414Z,99675.28
2023-02-06T01:17:44.929Z,99672.09
2023-02-06T01:20:12.974Z,99670.06
2023-02-06T01:22:39.608Z,99669.66
2023-02-06T01:25:08.908Z,99687.13
2023-02-06T01:27:38.239Z,99673.03
2023-02-06T01:30:08.925Z,99668.47
2023-02-06T01:32:41.906Z,99662.47
2023-02-06T01:35:10.144Z,99679.28
2023-02-06T01:37:39.596Z,99669.13
2023-02-06T01:40:08.583Z,99669.06
2023-02-06T01:42:36.618Z,99673.78
2023-02-06T01:45:40.824Z,99662.97
2023-02-06T01:48:12.165Z,99657.22
2023-02-06T01:50:41.510Z,99663.28
2023-02-06T01:53:12.007Z,99662.88
2023-02-06T01:55:41.794Z,99664.75
2023-02-06T01:58:15.309Z,99669.47
2023-02-06T02:00:42.175Z,99662.97
2023-02-06T02:03:08.984Z,99661.00
2023-02-06T02:05:36.098Z,99669.38
2023-02-06T02:08:11.347Z,99662.97
2023-02-06T02:10:37.869Z,99667.44
2023-02-06T02:13:04.319Z,99665.41
2023-02-06T02:15:48.920Z,99670.56
2023-02-06T02:18:29.660Z,99660.41
2023-02-06T02:21:20.348Z,99664.75
2023-02-06T02:24:02.664Z,99648.75
2023-02-06T02:27:02.296Z,99644.94
2023-02-06T02:29:49.053Z,99650.09
2023-02-06T02:32:31.434Z,99640.44
2023-02-06T02:35:33.021Z,99656.03
2023-02-06T02:38:05.662Z,99653.03
2023-02-06T02:40:38.058Z,99638.94
2023-02-06T02:43:29.952Z,99642.97
2023-02-06T02:46:15.837Z,99628.22
2023-02-06T02:48:47.238Z,99628.22
2023-02-06T02:51:16.326Z,99619.84
2023-02-06T02:53:45.973Z,99640.97
2023-02-06T02:56:18.559Z,99642.00
2023-02-06T02:58:48.819Z,99634.13
2023-02-06T03:01:21.338Z,99621.34
2023-02-06T03:03:49.174Z,99622.59
2023-02-06T03:06:28.750Z,99626.94
2023-02-06T03:09:03.109Z,99620.06
2023-02-06T03:11:30.102Z,99618.88
2023-02-06T03:14:18.195Z,99625.22
2023-02-06T03:16:50.669Z,99625.88
2023-02-06T03:19:21.619Z,99624.25
2023-02-06T03:21:49.945Z,99621.94
2023-02-06T03:24:29.812Z,99619.78
2023-02-06T03:27:01.969Z,99624.25
2023-02-06T03:29:31.537Z,99619.88
2023-02-06T03:32:07.348Z,99609.47
2023-02-06T03:35:01.854Z,99613.69
2023-02-06T03:37:29.395Z,99618.50
2023-02-06T03:39:59.223Z,99614.06
2023-02-06T03:42:27.500Z,99611.06
2023-02-06T03:45:00.576Z,99608.09
2023-02-06T03:47:29.616Z,99617.47
2023-02-06T03:49:59.982Z,99606.44
2023-02-06T03:52:32.809Z,99615.34
2023-02-06T03:55:04.261Z,99602.63
2023-02-06T03:57:32.801Z,99595.00
2023-02-06T03:59:59.360Z,99614.25
2023-02-06T04:02:26.082Z,99591.34
2023-02-06T04:04:52.701Z,99610.31
2023-02-06T04:07:27.346Z,99610.31
2023-02-06T04:09:54.002Z,99605.81
2023-02-06T04:12:21.441Z,99604.81
2023-02-06T04:14:51.228Z,99606.88
2023-02-06T04:17:38.532Z,99601.88
2023-02-06T04:20:08.216Z,99602.06
2023-02-06T04:22:35.027Z,99586.88
2023-02-06T04:25:01.839Z,99604.44
2023-02-06T04:27:28.400Z,99589.72
2023-02-06T04:29:54.856Z,99595.59
2023-02-06T04:32:21.323Z,99591.69
2023-02-06T04:34:51.828Z,99605.50
2023-02-06T04:37:19.805Z,99588.50
2023-02-06T04:39:49.975Z,99585.41
2023-02-06T04:42:16.430Z,99597.22
2023-02-06T04:44:42.881Z,99604.25
2023-02-06T04:47:09.379Z,99592.13
2023-02-06T04:49:35.883Z,99604.31
2023-02-06T04:52:02.339Z,99601.31
2023-02-06T04:54:29.775Z,99600.22
2023-02-06T04:56:57.763Z,99598.16
2023-02-06T04:59:24.258Z,99598.34
2023-02-06T05:01:53.781Z,99602.19
2023-02-06T05:04:23.962Z,99583.63
2023-02-06T05:06:53.297Z,99594.38
2023-02-06T05:09:22.689Z,99601.88
2023-02-06T05:11:51.182Z,99585.41
2023-02-06T05:14:17.646Z,99603.31
2023-02-06T05:16:45.403Z,99596.81
2023-02-06T05:19:11.850Z,99588.66
2023-02-06T05:21:38.349Z,99602.06
2023-02-06T05:24:05.195Z,99607.31
2023-02-06T05:26:31.657Z,99598.88
2023-02-06T05:28:58.124Z,99610.78
2023-02-06T05:31:24.744Z,99613.59
2023-02-06T05:33:55.198Z,99607.59
2023-02-06T05:36:25.031Z,99620.19
2023-02-06T05:38:54.275Z,99600.66
2023-02-06T05:41:23.097Z,99621.84
2023-02-06T05:43:49.573Z,99616.59
2023-02-06T05:46:16.112Z,99619.97
2023-02-06T05:48:42.582Z,99620.91
2023-02-06T05:51:09.041Z,99609.00
2023-02-06T05:53:35.543Z,99609.19
2023-02-06T05:56:02.165Z,99626.09
2023-02-06T05:58:28.714Z,99601.59
2023-02-06T06:00:55.255Z,99604.66
2023-02-06T06:03:24.958Z,99611.41
2023-02-06T06:05:55.057Z,99603.44
2023-02-06T06:08:23.569Z,99617.22
2023-02-06T06:10:54.387Z,99619.47
2023-02-06T06:13:21.737Z,99633.03
2023-02-06T06:15:53.631Z,99624.50
2023-02-06T06:18:23.952Z,99609.13
2023-02-06T06:20:50.727Z,99622.41
2023-02-06T06:23:17.850Z,99618.84
2023-02-06T06:25:46.783Z,99615.72
2023-02-06T06:28:13.413Z,99623.09
2023-02-06T06:30:39.958Z,99629.91
2023-02-06T06:33:06.484Z,99617.00
2023-02-06T06:35:33.425Z,99614.25
2023-02-06T06:38:00.075Z,99617.41
2023-02-06T06:40:26.603Z,99607.56
2023-02-06T06:42:56.283Z,99619.06
2023-02-06T06:45:26.070Z,99606.91
2023-02-06T06:47:55.448Z,99606.31
2023-02-06T06:50:26.519Z,99608.75
2023-02-06T06:52:55.805Z,99620.47
2023-02-06T06:55:23.937Z,99611.06
2023-02-06T06:57:54.798Z,99607.69
2023-02-06T07:00:24.354Z,99611.50
2023-02-06T07:02:55.792Z,99615.22
2023-02-06T07:05:25.446Z,99615.34
2023-02-06T07:07:53.712Z,99624.03
2023-02-06T07:10:20.272Z,99622.19
2023-02-06T07:12:46.703Z,99606.38
2023-02-06T07:15:13.192Z,99605.28
2023-02-06T07:17:39.929Z,99609.50
2023-02-06T07:20:07.049Z,99600.91
2023-02-06T07:22:33.564Z,99623.34
2023-02-06T07:25:00.038Z,99613.91
2023-02-06T07:27:26.570Z,99592.19
2023-02-06T07:29:56.200Z,99606.38
2023-02-06T07:32:28.116Z,99623.09
2023-02-06T07:34:54.604Z,99593.84
2023-02-06T07:37:23.498Z,99606.44
2023-02-06T07:39:50.062Z,99600.44
2023-02-06T07:42:16.701Z,99605.34
2023-02-06T07:44:43.201Z,99601.38
2023-02-06T07:47:10.428Z,99606.00
2023-02-06T07:49:36.941Z,99590.78
2023-02-06T07:52:03.913Z,99603.28
2023-02-06T07:54:31.266Z,99594.06
2023-02-06T07:56:57.731Z,99611.16
2023-02-06T07:59:24.876Z,99609.81
2023-02-06T08:01:55.705Z,99612.63
2023-02-06T08:04:25.503Z,99619.44
2023-02-06T08:06:54.719Z,99587.97
2023-02-06T08:09:23.560Z,99601.66
2023-02-06T08:11:53.089Z,99604.63
2023-02-06T08:14:19.550Z,99613.81
2023-02-06T08:16:46.378Z,99604.00
2023-02-06T08:19:12.871Z,99599.38
2023-02-06T08:21:39.421Z,99612.47
2023-02-06T08:24:06.189Z,99595.56
2023-02-06T08:26:33.213Z,99596.94
2023-02-06T08:29:02.977Z,99608.00
2023-02-06T08:31:35.533Z,99598.44
2023-02-06T08:34:02.805Z,99588.13
2023-02-06T08:36:31.931Z,99599.34
2023-02-06T08:38:59.819Z,99602.06
2023-02-06T08:41:41.055Z,99603.84
2023-02-06T08:44:11.852Z,99607.13
2023-02-06T08:46:39.358Z,99602.53
2023-02-06T08:49:08.327Z,99607.59
2023-02-06T08:51:36.805Z,99610.34
2023-02-06T08:54:06.396Z,99613.03
2023-02-06T08:56:34.638Z,99603.88
2023-02-06T08:59:01.389Z,99603.22
2023-02-06T09:01:30.693Z,99606.31
2023-02-06T09:03:59.380Z,99608.66
2023-02-06T09:06:26.547Z,99604.81
2023-02-06T09:08:57.278Z,99609.88
2023-02-06T09:11:26.017Z,99600.06
2023-02-06T09:13:57.739Z,99596.47
2023-02-06T09:16:26.087Z,99578.28
2023-02-06T09:19:01.221Z,99596.13
2023-02-06T09:21:30.353Z,99604.66
2023-02-06T09:23:59.633Z,99613.72
2023-02-06T09:26:44.875Z,99611.69
2023-02-06T09:29:17.298Z,99610.75
2023-02-06T09:31:43.977Z,99619.28
2023-02-06T09:34:12.418Z,99615.16
2023-02-06T09:36:39.458Z,99619.00
2023-02-06T09:39:07.679Z,99607.63
2023-02-06T09:41:36.747Z,99613.41
2023-02-06T09:44:18.488Z,99630.47
2023-02-06T09:46:50.163Z,99627.25
2023-02-06T09:49:39.634Z,99620.78
2023-02-06T09:52:35.089Z,99618.25
2023-02-06T09:55:23.371Z,99620.22
2023-02-06T09:58:06.574Z,99618.88
2023-02-06T10:00:53.656Z,99626.78
2023-02-06T10:03:48.483Z,99627.97
2023-02-06T10:06:21.764Z,99637.19
2023-02-06T10:09:16.293Z,99617.84
2023-02-06T10:12:07.310Z,99627.03
2023-02-06T10:14:46.848Z,99611.75
2023-02-06T10:17:29.192Z,99624.03
2023-02-06T10:20:12.399Z,99596.44
2023-02-06T10:23:49.959Z,99617.56
2023-02-06T10:26:18.440Z,99595.16
2023-02-06T10:28:56.818Z,99633.63
2023-02-06T10:31:29.474Z,99641.03
2023-02-06T10:34:14.617Z,99636.41
2023-02-06T10:36:53.766Z,99642.69
2023-02-06T10:39:38.331Z,99646.06
2023-02-06T10:42:26.319Z,99644.28
2023-02-06T10:45:27.620Z,99602.03
2023-02-06T10:47:55.673Z,99642.50
2023-02-06T10:50:58.754Z,99633.56
2023-02-06T10:53:34.716Z,99626.19
2023-02-06T10:56:14.882Z,99615.56
2023-02-06T10:59:20.488Z,99623.09
2023-02-06T11:01:48.298Z,99619.28
2023-02-06T11:04:25.757Z,99576.28
2023-02-06T11:07:01.098Z,99614.97
2023-02-06T11:09:28.208Z,99605.16
2023-02-06T11:12:00.395Z,99581.16
2023-02-06T11:14:38.539Z,99596.66
2023-02-06T11:17:05.043Z,99558.34
2023-02-06T11:19:39.001Z,99589.41
2023-02-06T11:22:07.244Z,99586.94
2023-02-06T11:24:35.092Z,99587.06
2023-02-06T11:27:11.665Z,99586.22
2023-02-06T11:29:44.980Z,99578.25
2023-02-06T11:33:02.681Z,99573.63
2023-02-06T11:35:36.625Z,99581.72
2023-02-06T11:38:27.767Z,99586.16
2023-02-06T11:40:55.694Z,99569.06
2023-02-06T11:43:25.525Z,99572.56
2023-02-06T11:46:14.283Z,99562.88
2023-02-06T11:48:45.830Z,99571.56
2023-02-06T11:51:14.121Z,99561.78
2023-02-06T11:54:01.252Z,99555.13
2023-02-06T11:56:29.907Z,99556.63
2023-02-06T11:59:15.547Z,99530.69
2023-02-06T12:01:47.288Z,99549.94
2023-02-06T12:04:23.936Z,99552.59
2023-02-06T12:06:56.512Z,99552.00
2023-02-06T12:09:26.776Z,99539.38
2023-02-06T12:12:11.806Z,99533.34
2023-02-06T12:14:55.921Z,99503.56
2023-02-06T12:17:32.772Z,99541.47
2023-02-06T12:20:08.070Z,99526.63
2023-02-06T12:22:40.400Z,99510.72
2023-02-06T12:25:23.065Z,99524.28
2023-02-06T12:27:54.292Z,99520.78
2023-02-06T12:30:34.585Z,99533.00
2023-02-06T12:33:33.301Z,99515.63
2023-02-06T12:36:07.971Z,99495.22
2023-02-06T12:38:43.916Z,99500.75
2023-02-06T12:41:10.356Z,99504.34
2023-02-06T12:43:38.509Z,99509.69
2023-02-06T12:46:17.301Z,99490.47
2023-02-06T12:49:07.684Z,99493.59
2023-02-06T12:51:45.660Z,99493.47
2023-02-06T12:54:26.418Z,99467.03
2023-02-06T12:57:03.180Z,99462.75
2023-02-06T13:00:06.759Z,99474.22
2023-02-06T13:02:57.769Z,99460.75
2023-02-06T13:05:38.415Z,99462.06
2023-02-06T13:08:11.034Z,99470.13
2023-02-06T13:10:39.004Z,99463.16
2023-02-06T13:13:06.111Z,99444.50
2023-02-06T13:15:41.106Z,99449.13
2023-02-06T13:18:37.496Z,99455.81
2023-02-06T13:21:28.768Z,99447.91
2023-02-06T13:24:17.115Z,99448.78
2023-02-06T13:26:47.862Z,99450.81
2023-02-06T13:29:25.618Z,99443.94
2023-02-06T13:32:10.708Z,99443.69
2023-02-06T13:34:43.389Z,99449.75
2023-02-06T13:37:34.948Z,99449.81
2023-02-06T13:40:23.117Z,99440.69
2023-02-06T13:43:07.727Z,99437.41
2023-02-06T13:45:49.511Z,99442.97
2023-02-06T13:48:28.265Z,99433.47
2023-02-06T13:51:21.303Z,99430.59
2023-02-06T13:54:15.863Z,99436.66
2023-02-06T13:57:31.300Z,99396.91
2023-02-06T14:00:23.038Z,99416.56
2023-02-06T14:03:04.806Z,99429.25
2023-02-06T14:05:44.064Z,99424.78
2023-02-06T14:08:25.698Z,99429.56
2023-02-06T14:11:39.558Z,99423.31
2023-02-06T14:14:28.417Z,99426.44
2023-02-06T14:17:10.742Z,99398.25
2023-02-06T14:19:48.280Z,99415.78
2023-02-06T14:22:49.226Z,99408.19
2023-02-06T14:25:34.056Z,99420.31
2023-02-06T14:28:19.117Z,99416.97
2023-02-06T14:31:07.611Z,99414.44
2023-02-06T14:33:59.714Z,99417.91
2023-02-06T14:36:51.229Z,99395.84
2023-02-06T14:39:52.794Z,99412.50
2023-02-06T14:42:25.440Z,99406.16
2023-02-06T14:45:03.136Z,99410.94
2023-02-06T14:47:33.443Z,99387.31
2023-02-06T14:50:00.946Z,99410.25
2023-02-06T14:52:33.155Z,99385.16
2023-02-06T14:54:59.765Z,99395.84
2023-02-06T14:57:31.428Z,99388.28
2023-02-06T15:00:01.730Z,99392.59
2023-02-06T15:02:34.415Z,99406.63
2023-02-06T15:05:02.370Z,99384.41
2023-02-06T15:07:33.285Z,99397.03
2023-02-06T15:10:07.602Z,99392.22
2023-02-06T15:12:34.997Z,99397.03
2023-02-06T15:15:23.554Z,99387.66
2023-02-06T15:18:02.136Z,99384.44
2023-02-06T15:20:40.232Z,99393.66
2023-02-06T15:23:18.137Z,99394.75
2023-02-06T15:25:58.950Z,99382.97
2023-02-06T15:28:33.616Z,99390.53
2023-02-06T15:31:01.992Z,99389.94
2023-02-06T15:33:34.169Z,99382.13
2023-02-06T15:36:03.304Z,99384.19
2023-02-06T15:38:32.972Z,99385.19
2023-02-06T15:41:06.511Z,99359.97
2023-02-06T15:43:34.432Z,99391.28
2023-02-06T15:46:03.198Z,99359.75
2023-02-06T15:48:50.837Z,99393.50
2023-02-06T15:51:30.043Z,99382.09
2023-02-06T15:54:22.620Z,99375.69
2023-02-06T15:57:17.182Z,99372.00
2023-02-06T15:59:44.026Z,99362.34
2023-02-06T16:02:24.911Z,99368.19
2023-02-06T16:04:54.009Z,99370.56
2023-02-06T16:07:31.748Z,99330.28
2023-02-06T16:10:24.783Z,99363.00
2023-02-06T16:12:52.778Z,99355.41
2023-02-06T16:15:25.195Z,99359.41
2023-02-06T16:17:52.395Z,99351.94
2023-02-06T16:20:40.074Z,99356.25
2023-02-06T16:23:47.653Z,99352.34
2023-02-06T16:26:34.041Z,99342.41
2023-02-06T16:29:12.803Z,99356.63
2023-02-06T16:32:08.568Z,99355.63
2023-02-06T16:34:45.807Z,99352.03
2023-02-06T16:37:23.215Z,99362.75
2023-02-06T16:39:49.822Z,99364.69
2023-02-06T16:42:18.226Z,99377.44
2023-02-06T16:44:50.260Z,99362.22
2023-02-06T16:47:20.450Z,99382.28
2023-02-06T16:49:51.071Z,99377.25
2023-02-06T16:52:31.278Z,99369.13
2023-02-06T16:55:00.105Z,99372.94
2023-02-06T16:57:38.170Z,99371.13
2023-02-06T17:00:25.550Z,99387.97
2023-02-06T17:02:53.200Z,99357.56
2023-02-06T17:05:23.702Z,99388.72
2023-02-06T17:07:50.853Z,99366.50
2023-02-06T17:10:19.760Z,99399.16
2023-02-06T17:12:47.115Z,99379.03
2023-02-06T17:15:18.280Z,99401.03
2023-02-06T17:17:45.440Z,99413.88
2023-02-06T17:20:41.073Z,99422.25
2023-02-06T17:23:10.540Z,99421.28
2023-02-06T17:26:15.512Z,99422.66
2023-02-06T17:28:53.130Z,99389.81
2023-02-06T17:31:20.126Z,99419.34
2023-02-06T17:33:46.867Z,99417.44
2023-02-06T17:36:18.635Z,99422.34
2023-02-06T17:38:45.525Z,99424.19
2023-02-06T17:41:12.318Z,99400.97
2023-02-06T17:43:38.870Z,99422.56
2023-02-06T17:46:06.592Z,99425.09
2023-02-06T17:48:36.688Z,99420.25
2023-02-06T17:51:05.735Z,99421.06
2023-02-06T17:53:32.514Z,99385.38
2023-02-06T17:56:07.148Z,99394.22
2023-02-06T17:58:35.094Z,99366.72
2023-02-06T18:01:01.804Z,99401.28
2023-02-06T18:03:31.961Z,99425.69
2023-02-06T18:06:02.788Z,99357.03
2023-02-06T18:08:40.960Z,99411.16
2023-02-06T18:11:32.279Z,99354.00
2023-02-06T18:14:02.603Z,99419.41
2023-02-06T18:16:32.305Z,99392.00
2023-02-06T18:19:02.058Z,99382.75
2023-02-06T18:21:31.548Z,99425.81
2023-02-06T18:24:07.161Z,99414.09
2023-02-06T18:26:33.872Z,99423.25
2023-02-06T18:29:06.455Z,99405.50
2023-02-06T18:31:38.842Z,99423.38
2023-02-06T18:34:08.917Z,99420.75
2023-02-06T18:36:36.918Z,99366.22
2023-02-06T18:39:37.421Z,99409.75
2023-02-06T18:42:23.534Z,99408.16
2023-02-06T18:45:02.096Z,99402.81
2023-02-06T18:47:30.705Z,99354.38
2023-02-06T18:50:32.306Z,99401.81
2023-02-06T18:54:53.398Z,99337.59
2023-02-06T18:59:33.906Z,99356.78
2023-02-06T19:00:47.777Z,99387.81
2023-02-06T19:03:14.684Z,99395.66
2023-02-06T19:06:48.436Z,99326.78
2023-02-06T19:09:15.826Z,99364.94
2023-02-06T19:11:43.004Z,99409.78
2023-02-06T19:14:15.188Z,99415.44
2023-02-06T19:16:44.458Z,99410.25
2023-02-06T19:19:12.149Z,99410.81
2023-02-06T19:21:39.200Z,99413.44
2023-02-06T19:24:06.161Z,99401.25
2023-02-06T19:26:34.033Z,99397.41
2023-02-06T19:29:00.981Z,99396.91
2023-02-06T19:31:31.677Z,99393.50
2023-02-06T19:34:01.759Z,99365.97
2023-02-06T19:36:35.836Z,99393.13
2023-02-06T19:39:07.310Z,99397.69
2023-02-06T19:41:34.357Z,99390.47
2023-02-06T19:44:12.163Z,99398.78
2023-02-06T19:46:45.025Z,99389.34
2023-02-06T19:50:28.312Z,99317.00
2023-02-06T19:52:35.233Z,99347.50
2023-02-06T19:55:04.856Z,99355.09
2023-02-06T19:57:47.070Z,99325.72
2023-02-06T20:00:14.104Z,99346.50
2023-02-06T20:02:40.610Z,99382.19
2023-02-06T20:05:07.684Z,99360.66
2023-02-06T20:07:45.157Z,99355.09
2023-02-06T20:10:13.926Z,99356.63
2023-02-06T20:12:42.750Z,99355.69
2023-02-06T20:15:13.475Z,99352.28
2023-02-06T20:18:06.894Z,99319.47
2023-02-06T20:20:53.910Z,99338.78
2023-02-06T20:26:35.386Z,99292.38
2023-02-06T20:29:10.845Z,99314.25
2023-02-06T20:31:37.365Z,99282.41
2023-02-06T20:34:04.001Z,99309.53
2023-02-06T20:36:31.145Z,99294.75
2023-02-06T20:39:02.803Z,99303.88
2023-02-06T20:41:32.283Z,99305.09
2023-02-06T20:44:00.780Z,99302.75
2023-02-06T20:46:30.851Z,99308.59
2023-02-06T20:49:02.463Z,99299.53
2023-02-06T20:51:32.321Z,99307.34
2023-02-06T20:54:01.732Z,99267.75
2023-02-06T20:56:30.618Z,99294.13
2023-02-06T20:59:03.032Z,99286.47
2023-02-06T21:01:31.523Z,99273.56
2023-02-06T21:04:04.346Z,99288.41
2023-02-06T21:06:35.974Z,99268.19
2023-02-06T21:09:04.414Z,99251.50
2023-02-06T21:11:36.262Z,99261.38
2023-02-06T21:14:04.683Z,99262.88
2023-02-06T21:16:32.444Z,99276.53
2023-02-06T21:19:04.631Z,99255.69
2023-02-06T21:21:34.533Z,99263.25
2023-02-06T21:24:01.634Z,99248.16
2023-02-06T21:26:29.246Z,99262.94
2023-02-06T21:28:58.695Z,99246.72
2023-02-06T21:31:37.883Z,99259.75
2023-02-06T21:34:12.005Z,99247.22
2023-02-06T21:36:39.607Z,99272.03
2023-02-06T21:39:07.199Z,99246.03
2023-02-06T21:41:34.575Z,99259.69
2023-02-06T21:44:02.239Z,99243.31
2023-02-06T21:46:34.621Z,99256.03
2023-02-06T21:49:06.308Z,99257.13
2023-02-06T21:51:41.470Z,99246.78
2023-02-06T21:54:08.555Z,99261.81
2023-02-06T21:56:38.038Z,99255.88
2023-02-06T21:59:06.571Z,99233.13
2023-02-06T22:01:34.081Z,99246.47
2023-02-06T22:04:26.788Z,99231.16
2023-02-06T22:06:53.338Z,99214.75
2023-02-06T22:09:20.782Z,99216.69
2023-02-06T22:11:47.374Z,99229.38
2023-02-06T22:14:17.053Z,99212.63
2023-02-06T22:16:46.528Z,99217.03
2023-02-06T22:19:13.566Z,99217.59
2023-02-06T22:21:41.518Z,99187.97
2023-02-06T22:24:10.424Z,99186.81
2023-02-06T22:26:38.816Z,99176.94
2023-02-06T22:29:07.407Z,99170.00
2023-02-06T22:31:36.409Z,99175.69
2023-02-06T22:34:33.703Z,99168.44
2023-02-06T22:37:02.323Z,99115.88
2023-02-06T22:39:28.854Z,99144.47
2023-02-06T22:41:55.370Z,99131.63
2023-02-06T22:44:43.919Z,99133.63
2023-02-06T22:47:10.518Z,99067.09
2023-02-06T22:49:37.023Z,99137.28
2023-02-06T22:52:26.675Z,99125.22
2023-02-06T22:54:53.564Z,99142.50
2023-02-06T22:57:20.344Z,99139.19
2023-02-06T22:59:47.153Z,99155.91
2023-02-06T23:02:13.982Z,99166.63
2023-02-06T23:04:40.778Z,99168.41
2023-02-06T23:07:07.494Z,99162.19
2023-02-06T23:09:38.350Z,99158.50
2023-02-06T23:12:05.544Z,99173.03
2023-02-06T23:14:34.634Z,99201.56
2023-02-06T23:17:04.516Z,99194.63
2023-02-06T23:19:31.163Z,99193.06
2023-02-06T23:21:57.898Z,99191.38
2023-02-06T23:24:24.442Z,99189.41
2023-02-06T23:26:51.874Z,99207.56
2023-02-06T23:29:19.658Z,99201.47
2023-02-06T23:31:47.428Z,99184.75
2023-02-06T23:34:15.206Z,99183.06
2023-02-06T23:36:42.747Z,99186.53
2023-02-06T23:39:09.328Z,99157.44
2023-02-06T23:41:39.189Z,99179.88
2023-02-06T23:44:07.617Z,99184.44
2023-02-06T23:46:39.860Z,99187.56
2023-02-06T23:49:10.278Z,99181.78
2023-02-06T23:51:38.068Z,99189.56
2023-02-06T23:54:06.905Z,99181.72
2023-02-06T23:56:33.598Z,99191.34
2023-02-06T23:59:01.705Z,99191.78
